Terminal Aerodrome Forecast
Issued by NWS

Home | Current Version | Previous Version | Text Only | Print | Product List | Glossary On
Versions: 1 2 3 4 5 6 7 8 9 10 11 12 13
000
FTAK31 PAJN 240500
TAFAWG
TAF
PAWG 240535Z 2406/2506 28008KT P6SM SCT080 BKN120
     FM241000 VRB04KT P6SM BKN025 BKN100
     FM241700 28005KT P6SM SCT025 SCT100
     FM242000 28008KT P6SM SCT100
     FM250300 VRB04KT P6SM SCT150
      AMD LTD TO CLD VIS AND WIND 2406/2415=

USA.gov is the U.S. government's official web portal to all federal, state and local government web resources and services.